Currituck, North Carolina
Current Conditions -  °F | °C
As of 12:30 PM on Monday 22 Dec 2014 (Local Time) from KONX Reporting Station
Moderate Rain Moderate Rain  
Wind Chill: 50°   Ceiling: 500
Heat Index: 50°   Visibility: 4mi
Dew Point: 48°   Wind: 10mph
Humidity: 94%   Direction: 30°NNE
Pressure: 30.05"   Gusts: 17mph
Location:  36.45°N, 76.02°W
Report Text: KONX 221730Z AUTO 03009G15KT 4SM RA OVC005 10/09 A3005 RMK AO2 P0004 T01000090
Loading
Personal Weather Stations






























Interactive Weather Map New forecast layout! Learn more

10-Day Weather Forecast

Advertisements
Track Severe Weather on mobile